Time;durP1;ratioP1;P1;durP2;ratioP2;P2;SDS_P1;SDS_P2;PMS_P1;PMS_P2;Temp;Humidity;BMP_temperature;BMP_pressure;BME280_temperature;BME280_humidity;BME280_pressure;Samples;Min_cycle;Max_cycle;Signal;HPM_P1;HPM_P2
2021/01/20 00:02:06;;;;;;;267.85;200.65;;;18.30;42.50;;;;;;4478466;58;21591;-34
2021/01/20 00:07:07;;;;;;;267.17;200.60;;;18.30;42.40;;;;;;4453665;59;21130;-34
2021/01/20 00:12:08;;;;;;;265.15;200.13;;;18.30;42.40;;;;;;4447588;59;21547;-31
2021/01/20 00:17:09;;;;;;;264.75;201.68;;;18.30;42.30;;;;;;4459920;59;21050;-36
2021/01/20 00:22:11;;;;;;;269.33;200.45;;;18.30;42.20;;;;;;4450353;59;21053;-36
2021/01/20 00:27:12;;;;;;;261.90;194.77;;;18.30;42.20;;;;;;4472752;59;21131;-32
2021/01/20 00:32:13;;;;;;;271.98;202.82;;;18.40;42.30;;;;;;4493372;59;21128;-35
2021/01/20 00:37:14;;;;;;;266.60;197.87;;;18.30;42.20;;;;;;4452690;59;21090;-35
2021/01/20 00:42:15;;;;;;;270.00;197.55;;;18.30;42.00;;;;;;4453142;59;21560;-33
2021/01/20 00:47:16;;;;;;;260.13;195.10;;;18.30;42.20;;;;;;4452770;59;21101;-33
2021/01/20 00:52:17;;;;;;;256.15;187.20;;;18.30;42.00;;;;;;4453509;59;21095;-35
2021/01/20 00:57:18;;;;;;;267.55;198.45;;;18.30;41.90;;;;;;4481390;59;21082;-36
2021/01/20 01:02:19;;;;;;;254.75;185.63;;;18.30;42.00;;;;;;4439911;63;21161;-34
2021/01/20 01:07:20;;;;;;;264.80;198.60;;;18.30;41.90;;;;;;4455278;59;21548;-30
2021/01/20 01:12:20;;;;;;;262.75;193.40;;;18.30;41.80;;;;;;4453964;59;21081;-34
2021/01/20 01:17:21;;;;;;;254.50;193.65;;;18.30;41.90;;;;;;4455727;59;22483;-29
2021/01/20 01:22:22;;;;;;;251.57;187.77;;;18.30;41.70;;;;;;4454856;59;21160;-33
2021/01/20 01:27:23;;;;;;;252.20;187.12;;;18.30;41.60;;;;;;4441134;60;21810;-33
2021/01/20 01:32:27;;;;;;;251.60;189.50;;;18.30;41.60;;;;;;4470336;59;21535;-27
2021/01/20 01:37:28;;;;;;;256.50;185.37;;;18.30;41.60;;;;;;4457477;59;21112;-33
2021/01/20 01:42:29;;;;;;;249.18;182.77;;;18.30;41.60;;;;;;4452541;59;21042;-34
2021/01/20 01:47:30;;;;;;;247.10;183.15;;;18.30;41.60;;;;;;4453026;59;21069;-36
2021/01/20 01:52:30;;;;;;;244.60;179.68;;;18.30;41.40;;;;;;4446653;59;21594;-33
2021/01/20 01:57:31;;;;;;;246.07;178.77;;;18.30;41.50;;;;;;4454435;59;21089;-32
2021/01/20 02:02:33;;;;;;;246.02;183.62;;;18.30;41.40;;;;;;4442567;59;21105;-35
2021/01/20 02:07:35;;;;;;;246.25;185.23;;;18.30;41.30;;;;;;4453722;59;21590;-34
2021/01/20 02:13:16;;;;;;;240.93;180.35;;;18.30;41.20;;;;;;4452199;59;21113;-38
2021/01/20 02:18:20;;;;;;;238.57;177.68;;;18.30;41.30;;;;;;4442009;59;21130;-28
2021/01/20 02:23:22;;;;;;;239.68;174.02;;;18.30;41.30;;;;;;4472506;59;21065;-32
2021/01/20 02:29:10;;;;;;;233.85;167.75;;;18.30;41.30;;;;;;4474521;59;21604;-30
2021/01/20 02:34:15;;;;;;;231.30;169.35;;;18.30;41.00;;;;;;4444613;59;21171;-24
2021/01/20 02:39:20;;;;;;;237.38;175.12;;;18.30;41.10;;;;;;4468959;59;21069;-30
2021/01/20 02:44:20;;;;;;;229.38;165.95;;;18.30;41.20;;;;;;4469894;59;21053;-27
2021/01/20 02:49:22;;;;;;;229.90;165.93;;;18.20;41.10;;;;;;4464872;59;21635;-36
2021/01/20 02:54:24;;;;;;;228.20;168.82;;;18.30;41.10;;;;;;4440669;63;21192;-36
2021/01/20 02:59:26;;;;;;;224.77;165.75;;;18.30;41.00;;;;;;4458881;59;21168;-34
2021/01/20 03:04:29;;;;;;;221.60;163.65;;;18.20;41.00;;;;;;4449038;59;21089;-33
2021/01/20 03:09:30;;;;;;;219.65;162.20;;;18.30;41.00;;;;;;4443409;59;21110;-31
2021/01/20 03:14:33;;;;;;;214.63;156.90;;;18.20;40.90;;;;;;4448838;59;21129;-33
2021/01/20 03:19:34;;;;;;;221.75;162.62;;;18.20;40.70;;;;;;4440954;63;21113;-34
2021/01/20 03:24:35;;;;;;;217.65;154.98;;;18.20;40.90;;;;;;4469816;59;22309;-26
2021/01/20 03:29:36;;;;;;;217.07;158.10;;;18.20;41.50;;;;;;4441776;59;21065;-34
2021/01/20 03:34:37;;;;;;;215.25;155.12;;;18.20;40.80;;;;;;4441119;59;21066;-33
2021/01/20 03:39:37;;;;;;;212.02;154.95;;;18.20;40.90;;;;;;4476083;59;21133;-29
2021/01/20 03:44:38;;;;;;;201.90;146.87;;;18.20;40.80;;;;;;4442559;59;21122;-35
2021/01/20 03:49:39;;;;;;;208.70;152.38;;;18.20;40.70;;;;;;4442837;59;21102;-35
2021/01/20 03:54:40;;;;;;;200.75;150.57;;;18.20;40.70;;;;;;4441797;59;21097;-37
2021/01/20 03:59:41;;;;;;;202.00;147.13;;;18.20;40.80;;;;;;4448649;59;21110;-26
2021/01/20 04:04:42;;;;;;;202.30;144.43;;;18.20;40.60;;;;;;4444326;59;21075;-35
2021/01/20 04:09:43;;;;;;;197.48;146.57;;;18.20;40.50;;;;;;4440654;63;21070;-34
2021/01/20 04:14:43;;;;;;;187.50;139.55;;;18.20;40.50;;;;;;4469661;59;21563;-33
2021/01/20 04:19:44;;;;;;;195.50;143.40;;;18.20;40.60;;;;;;4463381;59;21099;-31
2021/01/20 04:24:45;;;;;;;196.23;142.48;;;18.20;40.50;;;;;;4444694;59;21576;-34
2021/01/20 04:29:46;;;;;;;186.80;138.75;;;18.20;40.60;;;;;;4448265;59;21082;-34
2021/01/20 04:34:48;;;;;;;194.05;142.52;;;18.20;40.50;;;;;;4440358;63;21109;-34
2021/01/20 04:39:48;;;;;;;175.62;127.00;;;18.20;40.60;;;;;;4445337;59;21588;-37
2021/01/20 04:44:49;;;;;;;185.75;139.25;;;18.20;40.50;;;;;;4455200;59;21089;-26
2021/01/20 04:49:51;;;;;;;181.70;137.45;;;18.20;40.60;;;;;;4446094;59;21548;-37
2021/01/20 04:54:55;;;;;;;184.23;135.37;;;18.20;40.70;;;;;;4449339;59;21102;-36
2021/01/20 04:59:56;;;;;;;177.12;132.37;;;18.20;40.50;;;;;;4452677;59;21081;-32
2021/01/20 05:04:56;;;;;;;176.30;132.75;;;18.20;40.60;;;;;;4443532;59;21495;-30
2021/01/20 05:09:58;;;;;;;178.48;134.52;;;18.20;40.60;;;;;;4442024;59;21844;-33
2021/01/20 05:14:58;;;;;;;174.10;130.05;;;18.20;40.60;;;;;;4459131;59;21119;-33
2021/01/20 05:19:59;;;;;;;169.65;128.55;;;18.20;40.50;;;;;;4464631;59;21089;-35
2021/01/20 05:25:03;;;;;;;172.93;130.73;;;18.20;40.60;;;;;;4440851;59;21038;-32
2021/01/20 05:30:06;;;;;;;163.12;121.47;;;18.20;40.50;;;;;;4451633;59;21049;-26
2021/01/20 05:35:09;;;;;;;165.98;125.10;;;18.20;40.60;;;;;;4446081;59;21102;-34
2021/01/20 05:40:13;;;;;;;165.20;126.40;;;18.20;40.60;;;;;;4462510;59;22075;-32
2021/01/20 05:45:14;;;;;;;164.32;125.20;;;18.20;40.40;;;;;;4452984;59;21102;-30
2021/01/20 05:50:15;;;;;;;167.25;123.68;;;18.10;40.50;;;;;;4454477;59;21049;-37
2021/01/20 05:55:17;;;;;;;162.65;123.20;;;18.10;40.60;;;;;;4446639;59;21588;-27
2021/01/20 06:00:19;;;;;;;165.20;121.62;;;18.20;40.60;;;;;;4450669;59;21067;-31
2021/01/20 06:05:21;;;;;;;156.85;117.90;;;18.20;40.60;;;;;;4440751;63;21105;-31
2021/01/20 06:10:23;;;;;;;159.68;120.07;;;18.20;40.80;;;;;;4471221;59;21552;-28
2021/01/20 06:15:23;;;;;;;156.95;118.82;;;18.20;40.90;;;;;;4439338;59;21098;-32
2021/01/20 06:20:25;;;;;;;150.65;115.53;;;18.10;40.80;;;;;;4440994;60;21504;-35
2021/01/20 06:25:32;;;;;;;153.18;119.13;;;18.10;40.80;;;;;;4449598;59;21104;-31
2021/01/20 06:30:43;;;;;;;152.53;116.30;;;18.10;40.90;;;;;;4463894;59;21065;-35
2021/01/20 06:35:49;;;;;;;158.07;116.60;;;18.10;40.90;;;;;;4447543;59;21054;-36
2021/01/20 06:40:50;;;;;;;150.70;114.65;;;18.20;40.90;;;;;;4440947;63;21054;-34
2021/01/20 06:46:42;;;;;;;150.35;114.88;;;18.20;41.10;;;;;;4440415;63;21054;-30
2021/01/20 06:52:14;;;;;;;149.20;112.60;;;18.20;40.90;;;;;;4468261;59;21599;-34
2021/01/20 06:57:32;;;;;;;151.05;115.37;;;18.10;40.90;;;;;;4456811;59;21045;-33
2021/01/20 07:02:34;;;;;;;150.00;113.62;;;18.10;40.90;;;;;;4451695;59;21085;-34
2021/01/20 07:08:10;;;;;;;147.15;112.40;;;18.10;41.00;;;;;;4462986;59;21082;-30
2021/01/20 07:13:16;;;;;;;154.80;116.88;;;18.10;40.90;;;;;;4471863;59;21062;-34
2021/01/20 07:18:20;;;;;;;150.48;113.90;;;18.10;41.00;;;;;;4463257;59;21544;-33
2021/01/20 07:23:21;;;;;;;149.98;113.62;;;18.10;41.10;;;;;;4440551;60;21081;-39
2021/01/20 07:28:23;;;;;;;154.50;116.97;;;18.10;41.00;;;;;;4440622;60;21089;-27
2021/01/20 07:33:24;;;;;;;151.52;112.40;;;18.10;41.00;;;;;;4451813;59;21090;-30
2021/01/20 07:38:32;;;;;;;151.10;116.47;;;18.10;41.90;;;;;;4446408;59;21516;-29
2021/01/20 07:43:33;;;;;;;151.95;115.00;;;18.10;41.10;;;;;;4457097;59;21621;-26
2021/01/20 07:48:34;;;;;;;145.82;109.97;;;18.10;40.90;;;;;;4468365;59;21049;-29
2021/01/20 07:53:35;;;;;;;149.80;114.28;;;18.10;41.00;;;;;;4467320;59;21073;-34
2021/01/20 07:58:36;;;;;;;158.75;119.25;;;18.10;41.10;;;;;;4449793;59;21532;-36
2021/01/20 08:03:37;;;;;;;159.32;118.07;;;18.10;41.00;;;;;;4465283;59;21083;-26
2021/01/20 08:08:59;;;;;;;157.25;119.50;;;18.10;41.20;;;;;;4464986;59;21496;-30
2021/01/20 08:14:02;;;;;;;168.55;122.03;;;18.20;41.10;;;;;;4442501;59;21125;-29
2021/01/20 08:19:04;;;;;;;161.00;120.18;;;18.20;41.40;;;;;;4455509;59;21186;-29
2021/01/20 08:24:07;;;;;;;162.80;121.35;;;18.20;41.70;;;;;;4454930;59;21576;-35
2021/01/20 08:29:12;;;;;;;169.55;124.97;;;18.30;42.20;;;;;;4458379;59;21542;-33
2021/01/20 08:34:23;;;;;;;168.48;125.43;;;18.30;42.40;;;;;;4444739;59;21102;-29
2021/01/20 08:39:25;;;;;;;171.73;124.20;;;18.30;42.70;;;;;;4441254;63;21042;-28
2021/01/20 08:44:26;;;;;;;175.48;127.78;;;18.40;43.00;;;;;;4482015;59;21121;-30
2021/01/20 08:49:27;;;;;;;175.40;129.35;;;18.40;43.40;;;;;;4462888;59;21504;-31
2021/01/20 08:54:28;;;;;;;214.12;149.95;;;18.40;43.40;;;;;;4471346;59;21069;-28
2021/01/20 08:59:59;;;;;;;393.27;290.08;;;18.50;46.00;;;;;;4466979;59;21030;-31
2021/01/20 09:05:00;;;;;;;494.40;391.48;;;18.20;43.60;;;;;;4453192;59;21579;-36
2021/01/20 09:10:03;;;;;;;490.95;400.75;;;18.00;43.40;;;;;;4451325;59;21161;-28
2021/01/20 09:15:05;;;;;;;480.23;378.90;;;18.00;44.70;;;;;;4441008;59;21069;-33
2021/01/20 09:20:07;;;;;;;444.60;337.38;;;18.00;43.00;;;;;;4437830;63;21066;-32
2021/01/20 09:25:10;;;;;;;440.20;338.80;;;17.90;41.90;;;;;;4455566;59;21355;-31
2021/01/20 09:30:12;;;;;;;428.00;327.98;;;17.90;41.60;;;;;;4455427;59;21098;-34
2021/01/20 09:35:14;;;;;;;441.88;341.45;;;17.80;41.60;;;;;;4453188;59;21166;-31
2021/01/20 09:40:18;;;;;;;442.95;346.80;;;17.80;41.70;;;;;;4449352;59;21150;-35
2021/01/20 09:45:22;;;;;;;441.73;334.92;;;17.80;42.60;;;;;;4439693;59;21189;-29
2021/01/20 09:50:24;;;;;;;430.80;333.38;;;17.80;42.90;;;;;;4445042;59;21077;-31
2021/01/20 09:55:25;;;;;;;428.80;331.25;;;17.80;42.80;;;;;;4439118;63;21087;-33
2021/01/20 10:00:25;;;;;;;435.35;334.60;;;17.80;42.60;;;;;;4440643;59;21458;-33
2021/01/20 10:05:26;;;;;;;438.15;339.42;;;17.80;42.20;;;;;;4440566;63;21602;-30
2021/01/20 10:10:28;;;;;;;445.25;348.25;;;17.80;42.30;;;;;;4439880;63;21062;-29
2021/01/20 10:15:29;;;;;;;443.90;348.15;;;17.80;42.30;;;;;;4439064;63;21166;-33
2021/01/20 10:20:30;;;;;;;441.30;343.65;;;17.90;42.70;;;;;;4458118;59;21607;-33
2021/01/20 10:25:33;;;;;;;452.62;351.90;;;17.90;43.50;;;;;;4439918;59;21062;-28
2021/01/20 10:30:34;;;;;;;458.52;349.88;;;17.90;43.40;;;;;;4450193;59;21197;-28
2021/01/20 10:35:35;;;;;;;458.05;345.70;;;17.90;43.00;;;;;;4440616;59;21073;-29
2021/01/20 10:40:36;;;;;;;460.75;352.10;;;17.90;42.50;;;;;;4465940;59;21058;-32
2021/01/20 10:45:37;;;;;;;458.83;349.15;;;17.90;42.80;;;;;;4460688;59;21061;-33
2021/01/20 10:50:38;;;;;;;464.15;354.33;;;17.90;42.00;;;;;;4442094;59;22220;-30
2021/01/20 10:55:39;;;;;;;457.90;353.55;;;18.00;42.70;;;;;;4459799;59;21077;-31
2021/01/20 11:00:39;;;;;;;469.52;345.15;;;18.00;42.50;;;;;;4460473;59;21101;-30
2021/01/20 11:05:41;;;;;;;460.30;344.73;;;18.00;42.10;;;;;;4444229;59;21053;-32
2021/01/20 11:10:41;;;;;;;465.48;354.55;;;18.00;42.40;;;;;;4462446;59;21139;-32
2021/01/20 11:15:46;;;;;;;465.50;353.05;;;18.00;42.50;;;;;;4438755;63;21841;-31
2021/01/20 11:20:47;;;;;;;471.55;359.27;;;18.00;42.40;;;;;;4449044;59;21070;-30
2021/01/20 11:25:52;;;;;;;476.30;362.08;;;18.10;42.20;;;;;;4445987;59;21066;-34
2021/01/20 11:30:55;;;;;;;477.00;361.80;;;18.00;42.00;;;;;;4454144;59;21149;-31
2021/01/20 11:35:56;;;;;;;476.55;361.20;;;18.00;42.30;;;;;;4453042;59;21154;-31
2021/01/20 11:40:57;;;;;;;481.63;364.42;;;18.00;41.60;;;;;;4455097;59;21057;-29
2021/01/20 11:45:57;;;;;;;496.20;379.90;;;18.10;41.90;;;;;;4439982;63;21946;-32
2021/01/20 11:50:58;;;;;;;474.83;372.35;;;18.20;41.70;;;;;;4463895;59;21066;-31
2021/01/20 11:55:59;;;;;;;475.67;370.88;;;18.30;41.80;;;;;;4454849;59;21077;-30
2021/01/20 12:01:00;;;;;;;479.58;372.42;;;18.30;42.00;;;;;;4455252;59;21770;-31
2021/01/20 12:06:01;;;;;;;468.13;358.83;;;18.30;42.10;;;;;;4477625;59;21066;-32
2021/01/20 12:11:02;;;;;;;437.80;314.63;;;18.30;42.30;;;;;;4457340;59;21113;-30
2021/01/20 12:16:03;;;;;;;465.10;347.27;;;18.20;42.00;;;;;;4472020;59;21113;-28
2021/01/20 12:21:05;;;;;;;467.25;349.33;;;18.20;41.90;;;;;;4438523;63;21077;-28
2021/01/20 12:26:05;;;;;;;451.60;342.17;;;18.30;42.00;;;;;;4446491;59;21062;-31
2021/01/20 12:31:06;;;;;;;450.48;342.15;;;18.30;42.20;;;;;;4444781;59;21519;-32
2021/01/20 12:36:07;;;;;;;445.05;338.15;;;18.40;42.40;;;;;;4441533;59;21106;-31
2021/01/20 12:41:08;;;;;;;425.15;318.98;;;18.50;42.70;;;;;;4444635;59;21510;-28
2021/01/20 12:46:09;;;;;;;425.75;321.92;;;18.50;43.10;;;;;;4448981;59;21117;-30
2021/01/20 12:51:10;;;;;;;405.83;299.30;;;18.60;43.00;;;;;;4443227;59;21649;-31
2021/01/20 12:56:11;;;;;;;414.37;314.25;;;18.60;43.90;;;;;;4487435;59;21523;-30
2021/01/20 13:01:12;;;;;;;404.92;303.05;;;18.60;43.50;;;;;;4450372;59;21141;-29
2021/01/20 13:06:13;;;;;;;395.23;301.50;;;18.60;43.60;;;;;;4444182;59;21157;-27
2021/01/20 13:11:14;;;;;;;391.45;300.45;;;18.60;43.80;;;;;;4454725;59;21547;-27
2021/01/20 13:16:16;;;;;;;397.10;296.27;;;18.60;43.70;;;;;;4439606;63;21109;-31
2021/01/20 13:21:17;;;;;;;378.58;288.98;;;18.60;43.70;;;;;;4454155;59;21050;-31
2021/01/20 13:26:18;;;;;;;353.55;256.63;;;18.60;43.80;;;;;;4443650;59;21548;-36
2021/01/20 13:31:18;;;;;;;333.58;249.07;;;18.60;44.20;;;;;;4453052;59;21042;-32
2021/01/20 13:36:20;;;;;;;334.27;250.43;;;18.70;44.30;;;;;;4439421;63;21170;-27
2021/01/20 13:41:21;;;;;;;314.25;237.70;;;18.80;44.30;;;;;;4458855;59;21511;-29
2021/01/20 13:46:22;;;;;;;318.88;239.00;;;18.80;44.30;;;;;;4462586;59;21058;-34
2021/01/20 13:51:22;;;;;;;328.17;242.23;;;18.90;44.40;;;;;;4438797;59;21520;-31
2021/01/20 13:56:25;;;;;;;336.27;254.40;;;18.90;44.20;;;;;;4446450;59;21053;-28
2021/01/20 14:01:26;;;;;;;321.00;229.27;;;18.80;44.50;;;;;;4436174;63;21623;-32
2021/01/20 14:06:27;;;;;;;314.35;239.32;;;18.80;44.80;;;;;;4451658;59;21118;-30
2021/01/20 14:11:28;;;;;;;309.08;236.37;;;18.80;44.90;;;;;;4440186;59;21105;-25
2021/01/20 14:16:30;;;;;;;321.85;238.27;;;18.80;45.00;;;;;;4458014;59;21050;-31
2021/01/20 14:21:31;;;;;;;306.17;237.02;;;18.80;45.10;;;;;;4456467;59;21503;-29
2021/01/20 14:26:32;;;;;;;315.90;235.88;;;18.90;45.20;;;;;;4462559;59;21277;-28
2021/01/20 14:31:33;;;;;;;323.15;241.93;;;18.90;45.30;;;;;;4455959;59;21050;-35
2021/01/20 14:36:34;;;;;;;307.40;226.75;;;18.90;45.40;;;;;;4445811;59;21587;-33
2021/01/20 14:41:35;;;;;;;302.65;232.98;;;18.90;45.50;;;;;;4449663;59;21093;-30
2021/01/20 14:46:36;;;;;;;311.27;234.43;;;18.90;45.50;;;;;;4448934;59;21075;-36
2021/01/20 14:51:37;;;;;;;304.85;231.27;;;18.90;45.60;;;;;;4440245;63;21528;-30
2021/01/20 14:56:39;;;;;;;299.77;228.18;;;18.90;45.60;;;;;;4444556;59;21081;-31
2021/01/20 15:01:40;;;;;;;282.45;212.45;;;18.90;46.30;;;;;;4456493;59;21563;-31
2021/01/20 15:06:41;;;;;;;297.58;225.30;;;18.90;45.80;;;;;;4440764;63;21527;-31
2021/01/20 15:11:42;;;;;;;292.37;217.57;;;18.90;45.90;;;;;;4477293;59;21155;-30
2021/01/20 15:16:43;;;;;;;286.45;221.87;;;18.90;46.00;;;;;;4466944;59;21101;-32
2021/01/20 15:21:43;;;;;;;280.23;215.90;;;19.00;46.20;;;;;;4480405;59;21082;-29
2021/01/20 15:26:44;;;;;;;277.30;207.85;;;19.00;46.20;;;;;;4457861;59;21069;-33
2021/01/20 15:31:45;;;;;;;279.60;209.93;;;19.00;46.20;;;;;;4449737;59;21046;-25
2021/01/20 15:36:46;;;;;;;276.20;208.35;;;19.00;46.30;;;;;;4439934;63;21050;-29
2021/01/20 15:41:47;;;;;;;273.35;204.85;;;19.00;46.40;;;;;;4456983;59;21129;-29
2021/01/20 15:46:48;;;;;;;263.67;198.10;;;19.00;46.40;;;;;;4460809;59;21054;-29
2021/01/20 15:51:49;;;;;;;266.12;200.00;;;19.00;46.50;;;;;;4463075;59;21046;-28
2021/01/20 15:56:53;;;;;;;267.20;200.60;;;19.00;46.50;;;;;;4457364;59;21177;-27
2021/01/20 16:01:53;;;;;;;278.42;212.52;;;19.00;46.50;;;;;;4464345;58;21600;-36
2021/01/20 16:06:55;;;;;;;265.85;206.15;;;19.00;46.60;;;;;;4441915;59;21153;-33
2021/01/20 16:11:57;;;;;;;274.33;204.85;;;18.90;46.60;;;;;;4453335;59;21050;-31
2021/01/20 16:16:57;;;;;;;269.02;208.20;;;18.90;46.60;;;;;;4456316;59;21721;-26
2021/01/20 16:21:58;;;;;;;261.92;201.15;;;18.80;46.60;;;;;;4448110;59;21058;-28
2021/01/20 16:26:59;;;;;;;257.37;195.52;;;18.70;46.50;;;;;;4453619;59;21041;-32
2021/01/20 16:32:00;;;;;;;271.15;207.80;;;18.80;46.50;;;;;;4446574;59;21124;-30
2021/01/20 16:37:01;;;;;;;263.98;203.82;;;18.70;46.50;;;;;;4462647;59;21093;-29
2021/01/20 16:42:02;;;;;;;258.85;201.95;;;18.70;46.50;;;;;;4454495;59;21114;-32
2021/01/20 16:47:04;;;;;;;259.00;201.18;;;18.70;46.40;;;;;;4444928;59;21025;-34
2021/01/20 16:52:05;;;;;;;251.15;193.65;;;18.60;46.30;;;;;;4457140;59;21130;-35
2021/01/20 16:57:06;;;;;;;248.85;187.68;;;18.60;46.30;;;;;;4464636;59;21539;-32
2021/01/20 17:02:07;;;;;;;255.87;196.75;;;18.60;46.20;;;;;;4455161;59;21058;-26
2021/01/20 17:07:08;;;;;;;258.08;198.87;;;18.60;46.20;;;;;;4456252;59;21066;-34
2021/01/20 17:12:09;;;;;;;249.23;192.27;;;18.60;46.20;;;;;;4457674;59;21570;-35
2021/01/20 17:17:10;;;;;;;239.05;184.52;;;18.60;46.30;;;;;;4448380;59;21218;-27
2021/01/20 17:22:11;;;;;;;258.90;199.18;;;18.50;46.10;;;;;;4460767;59;21722;-32
2021/01/20 17:27:12;;;;;;;260.80;201.57;;;18.50;46.10;;;;;;4439909;60;21062;-31
2021/01/20 17:32:12;;;;;;;246.82;183.35;;;18.50;46.10;;;;;;4477150;59;21085;-37
2021/01/20 17:37:13;;;;;;;249.77;191.40;;;18.50;45.90;;;;;;4458732;59;21069;-31
2021/01/20 17:42:14;;;;;;;251.73;190.93;;;18.50;46.00;;;;;;4440593;63;21105;-35
2021/01/20 17:47:15;;;;;;;260.00;197.98;;;18.50;45.90;;;;;;4468941;59;21623;-31
2021/01/20 17:52:16;;;;;;;250.00;194.82;;;18.50;46.00;;;;;;4465691;59;21090;-27
2021/01/20 17:57:17;;;;;;;255.23;201.25;;;18.50;45.90;;;;;;4459491;59;21512;-25
2021/01/20 18:02:18;;;;;;;250.77;194.00;;;18.40;45.70;;;;;;4459486;59;21070;-29
2021/01/20 18:07:19;;;;;;;251.40;200.80;;;18.50;46.00;;;;;;4445174;59;21062;-26
2021/01/20 18:12:19;;;;;;;244.45;183.85;;;18.50;46.00;;;;;;4457574;59;21152;-26
2021/01/20 18:17:23;;;;;;;248.82;196.00;;;18.50;45.80;;;;;;4461844;59;21114;-37
2021/01/20 18:22:24;;;;;;;253.77;198.85;;;18.50;46.40;;;;;;4463175;59;21054;-32
2021/01/20 18:27:25;;;;;;;254.57;198.52;;;18.50;45.90;;;;;;4453352;59;21077;-29
2021/01/20 18:32:26;;;;;;;257.67;196.87;;;18.40;45.80;;;;;;4462828;59;21120;-23
2021/01/20 18:37:26;;;;;;;243.55;184.73;;;18.40;45.80;;;;;;4446203;59;21061;-29
2021/01/20 18:42:27;;;;;;;252.35;194.82;;;18.40;45.60;;;;;;4448997;59;21081;-35
2021/01/20 18:47:28;;;;;;;258.80;200.00;;;18.40;45.60;;;;;;4440115;63;21184;-30
2021/01/20 18:52:29;;;;;;;256.15;201.30;;;18.40;45.70;;;;;;4445138;59;22360;-25
2021/01/20 18:57:30;;;;;;;251.00;195.23;;;18.40;45.70;;;;;;4442459;59;21180;-36
2021/01/20 19:02:31;;;;;;;255.80;201.02;;;18.40;45.60;;;;;;4439716;59;21077;-30
2021/01/20 19:07:31;;;;;;;260.52;201.27;;;18.40;45.70;;;;;;4446400;59;21110;-29
2021/01/20 19:12:32;;;;;;;262.40;204.00;;;18.40;45.70;;;;;;4440833;59;21534;-29
2021/01/20 19:17:34;;;;;;;253.68;197.45;;;18.40;45.70;;;;;;4440379;63;21042;-33
2021/01/20 19:22:36;;;;;;;253.00;198.70;;;18.40;45.50;;;;;;4462585;59;21607;-34
2021/01/20 19:27:37;;;;;;;257.95;205.50;;;18.40;45.60;;;;;;4457142;59;21132;-33
2021/01/20 19:32:37;;;;;;;259.77;204.32;;;18.40;45.50;;;;;;4467939;59;21120;-36
2021/01/20 19:37:38;;;;;;;260.23;205.18;;;18.40;45.90;;;;;;4457910;59;21043;-26
2021/01/20 19:42:39;;;;;;;260.30;199.40;;;18.40;45.60;;;;;;4453928;59;21060;-32
2021/01/20 19:47:40;;;;;;;265.83;204.80;;;18.40;45.50;;;;;;4444162;59;21552;-30
2021/01/20 19:52:41;;;;;;;258.35;205.95;;;18.40;45.50;;;;;;4445871;59;21053;-27
2021/01/20 19:57:42;;;;;;;259.25;203.48;;;18.40;45.60;;;;;;4458017;59;21133;-34
2021/01/20 20:02:43;;;;;;;261.05;204.40;;;18.40;45.50;;;;;;4439777;63;21066;-33
2021/01/20 20:07:44;;;;;;;266.10;207.85;;;18.40;45.30;;;;;;4451588;59;21061;-31
2021/01/20 20:12:45;;;;;;;260.58;203.32;;;18.40;45.50;;;;;;4458677;59;21082;-35
2021/01/20 20:17:46;;;;;;;253.98;200.75;;;18.40;45.50;;;;;;4454448;59;21050;-34
2021/01/20 20:22:47;;;;;;;255.80;201.48;;;18.40;45.60;;;;;;4459848;59;21070;-33
2021/01/20 20:27:48;;;;;;;261.87;206.35;;;18.40;45.40;;;;;;4460652;59;21146;-30
2021/01/20 20:32:49;;;;;;;267.92;207.70;;;18.40;45.40;;;;;;4440480;63;21065;-28
2021/01/20 20:37:50;;;;;;;254.07;202.10;;;18.40;45.30;;;;;;4450310;59;21598;-30
2021/01/20 20:42:51;;;;;;;254.35;199.68;;;18.40;45.50;;;;;;4461289;59;21245;-32
2021/01/20 20:47:52;;;;;;;251.32;197.70;;;18.40;45.50;;;;;;4455429;59;21058;-30
2021/01/20 20:52:53;;;;;;;250.07;195.93;;;18.40;45.40;;;;;;4448780;59;21062;-24
2021/01/20 20:57:55;;;;;;;253.73;193.27;;;18.40;45.50;;;;;;4463138;59;21046;-28
2021/01/20 21:02:56;;;;;;;249.20;194.32;;;18.30;45.30;;;;;;4446194;59;21567;-35
2021/01/20 21:07:57;;;;;;;251.62;194.18;;;18.30;45.30;;;;;;4477222;59;21049;-30
2021/01/20 21:12:57;;;;;;;258.90;205.25;;;18.30;45.20;;;;;;4440554;63;21616;-26
2021/01/20 21:17:58;;;;;;;252.05;193.95;;;18.30;45.40;;;;;;4472726;59;21113;-29
2021/01/20 21:22:59;;;;;;;251.75;198.75;;;18.30;45.30;;;;;;4447523;59;21112;-25
2021/01/20 21:28:00;;;;;;;253.68;198.27;;;18.30;45.40;;;;;;4446761;59;21072;-30
2021/01/20 21:33:01;;;;;;;263.92;205.23;;;18.30;45.20;;;;;;4458340;59;21057;-27
2021/01/20 21:38:02;;;;;;;255.27;197.82;;;18.30;45.10;;;;;;4462566;59;21125;-26
2021/01/20 21:43:02;;;;;;;257.55;200.75;;;18.30;45.20;;;;;;4463860;59;21527;-34
2021/01/20 21:48:04;;;;;;;248.60;192.93;;;18.30;45.20;;;;;;4440426;63;21615;-32
2021/01/20 21:53:04;;;;;;;255.27;198.32;;;18.30;45.20;;;;;;4449534;59;21094;-33
2021/01/20 21:58:05;;;;;;;255.55;202.05;;;18.40;45.20;;;;;;4440974;59;21110;-36
2021/01/20 22:03:06;;;;;;;244.27;190.68;;;18.30;45.10;;;;;;4443248;59;21077;-38
2021/01/20 22:08:07;;;;;;;245.32;191.98;;;18.40;45.10;;;;;;4441163;59;21120;-34
2021/01/20 22:13:08;;;;;;;241.00;190.93;;;18.30;45.00;;;;;;4441535;59;21604;-29
2021/01/20 22:18:09;;;;;;;251.25;204.80;;;18.30;45.00;;;;;;4442740;59;21053;-34
2021/01/20 22:23:10;;;;;;;255.68;199.43;;;18.30;44.80;;;;;;4467485;59;21046;-32
2021/01/20 22:28:10;;;;;;;254.57;196.70;;;18.30;44.80;;;;;;4442232;59;21659;-32
2021/01/20 22:33:11;;;;;;;248.70;193.10;;;18.40;45.00;;;;;;4442249;59;21596;-37
2021/01/20 22:38:12;;;;;;;257.92;203.80;;;18.30;44.90;;;;;;4440369;63;21551;-30
2021/01/20 22:43:13;;;;;;;256.30;200.77;;;18.30;44.90;;;;;;4440666;63;21603;-26
2021/01/20 22:48:14;;;;;;;251.75;194.10;;;18.30;44.80;;;;;;4443565;59;21114;-31
2021/01/20 22:53:15;;;;;;;249.02;192.68;;;18.30;44.80;;;;;;4439540;63;21058;-33
2021/01/20 22:58:16;;;;;;;252.68;195.82;;;18.30;44.80;;;;;;4448889;59;21049;-27
2021/01/20 23:03:17;;;;;;;247.05;193.37;;;18.30;44.70;;;;;;4444337;59;21174;-35
2021/01/20 23:08:18;;;;;;;246.70;188.40;;;18.30;44.70;;;;;;4440481;60;21218;-33
2021/01/20 23:13:18;;;;;;;250.32;198.05;;;18.30;44.80;;;;;;4446167;59;21146;-26
2021/01/20 23:18:19;;;;;;;245.68;190.52;;;18.30;44.60;;;;;;4475322;59;21570;-36
2021/01/20 23:23:20;;;;;;;249.55;190.00;;;18.30;44.70;;;;;;4445053;59;21046;-35
2021/01/20 23:28:22;;;;;;;249.60;193.13;;;18.30;44.50;;;;;;4444131;59;21121;-33
2021/01/20 23:33:23;;;;;;;245.35;190.88;;;18.30;44.70;;;;;;4440222;59;21555;-35
2021/01/20 23:38:23;;;;;;;243.00;186.00;;;18.30;44.60;;;;;;4446154;59;21042;-32
2021/01/20 23:43:24;;;;;;;249.70;190.20;;;18.30;44.60;;;;;;4459845;59;21038;-35
2021/01/20 23:48:25;;;;;;;246.60;190.23;;;18.30;44.40;;;;;;4447285;59;21121;-36
2021/01/20 23:53:26;;;;;;;246.45;187.32;;;18.30;44.20;;;;;;4469797;59;21147;-37
2021/01/20 23:58:27;;;;;;;241.40;185.63;;;18.30;44.30;;;;;;4442760;59;21696;-32
